ミュンヘン の空港の天気 - METARとTAF

ミュンヘン国際空港 ( EDDM / MUC ) - ドイツ ミュンヘン
飛行場実況気象(Metar)
観測時間07/18 15:20 CEST (07/18 13:20 UTC)
風向・風速西 4m/s
視程10km以上
天気現象
なし
気温26℃
湿度32%
気圧1013hPa
METAREDDM 181320Z 28007KT 240V340 CAVOK 26/08 Q1013 NOSIG
過去の天気等 Google飛行場航空写真 Wunderground天気予報

過去48時間のMETAR

飛行場予報(TAF)
発表時間: 7/18 13:00 CEST (7/18 11:00 UTC)
予報対象時間: 18日14時 CEST ~ 19日20時 CEST
風向・風速西北西 3m/s
視程10km以上
なし
18日19時 CEST ~ 18日21時 CEST に徐々に
風向・風速南西 2m/s
19日13時 CEST ~ 19日15時 CEST に徐々に
風向・風速西北西 3m/s
19日18時 CEST ~ 19日20時 CEST に徐々に
風向・風速不定 1m/s
TAF EDDM 181100Z 1812/1918 29006KT CAVOK
BECMG 1817/1819 23004KT
BECMG 1911/1913 30005KT
BECMG 1916/1918 VRB02KT